createdAt,value
2018-12-30T00:00:22.243Z,5.50
2018-12-30T00:02:50.119Z,5.30
2018-12-30T00:05:18.333Z,5.30
2018-12-30T00:07:46.154Z,5.20
2018-12-30T00:10:13.947Z,5.20
2018-12-30T00:12:41.692Z,5.30
2018-12-30T00:15:09.952Z,5.30
2018-12-30T00:17:37.725Z,5.30
2018-12-30T00:20:05.870Z,5.40
2018-12-30T00:22:33.730Z,5.50
2018-12-30T00:25:01.518Z,5.90
2018-12-30T00:27:29.288Z,5.40
2018-12-30T00:29:57.145Z,5.50
2018-12-30T00:32:25.776Z,5.50
2018-12-30T00:34:53.584Z,5.60
2018-12-30T00:37:21.375Z,5.60
2018-12-30T00:39:49.122Z,5.60
2018-12-30T00:42:27.035Z,5.60
2018-12-30T00:44:55.452Z,5.60
2018-12-30T00:47:23.262Z,5.60
2018-12-30T00:49:51.054Z,5.70
2018-12-30T00:52:18.890Z,5.70
2018-12-30T00:54:46.651Z,5.60
2018-12-30T00:57:14.421Z,5.70
2018-12-30T00:59:42.444Z,5.60
2018-12-30T01:02:10.349Z,5.60
2018-12-30T01:04:38.085Z,5.70
2018-12-30T01:07:06.056Z,6.00
2018-12-30T01:09:33.839Z,5.70
2018-12-30T01:12:06.704Z,5.70
2018-12-30T01:14:34.501Z,5.70
2018-12-30T01:17:02.317Z,5.80
2018-12-30T01:19:30.120Z,5.80
2018-12-30T01:21:59.255Z,5.80
2018-12-30T01:24:27.109Z,5.90
2018-12-30T01:26:54.929Z,6.40
2018-12-30T01:29:22.668Z,5.90
2018-12-30T01:31:50.475Z,5.90
2018-12-30T01:34:18.612Z,5.90
2018-12-30T01:36:46.424Z,6.00
2018-12-30T01:39:14.239Z,6.00
2018-12-30T01:41:42.295Z,6.00
2018-12-30T01:44:10.222Z,6.00
2018-12-30T01:46:38.026Z,6.00
2018-12-30T01:49:05.837Z,6.10
2018-12-30T01:51:33.721Z,6.10
2018-12-30T01:54:01.515Z,6.10
2018-12-30T01:56:29.607Z,6.10
2018-12-30T01:58:57.367Z,6.10
2018-12-30T02:01:25.168Z,6.40
2018-12-30T02:03:53.057Z,6.10
2018-12-30T02:06:20.889Z,6.20
2018-12-30T02:08:48.732Z,6.30
2018-12-30T02:11:16.572Z,6.30
2018-12-30T02:13:44.381Z,6.20
2018-12-30T02:16:13.746Z,6.30
2018-12-30T02:18:41.579Z,6.30
2018-12-30T02:21:09.352Z,6.60
2018-12-30T02:23:37.424Z,6.30
2018-12-30T02:26:05.237Z,6.30
2018-12-30T02:28:33.070Z,6.30
2018-12-30T02:31:00.847Z,6.40
2018-12-30T02:33:28.648Z,6.40
2018-12-30T02:35:56.495Z,6.40
2018-12-30T02:38:24.425Z,6.40
2018-12-30T02:40:52.228Z,6.40
2018-12-30T02:43:25.317Z,6.50
2018-12-30T02:45:53.080Z,6.50
2018-12-30T02:48:20.910Z,6.50
2018-12-30T02:50:48.747Z,6.50
2018-12-30T02:53:16.664Z,6.50
2018-12-30T02:55:44.484Z,6.50
2018-12-30T02:58:12.304Z,6.60
2018-12-30T03:00:40.058Z,6.60
2018-12-30T03:03:13.232Z,6.60
2018-12-30T03:05:41.085Z,6.60
2018-12-30T03:08:08.827Z,6.60
2018-12-30T03:10:36.687Z,6.60
2018-12-30T03:13:04.599Z,6.60
2018-12-30T03:15:32.396Z,6.70
2018-12-30T03:18:00.172Z,6.70
2018-12-30T03:20:28.015Z,6.70
2018-12-30T03:22:55.988Z,6.80
2018-12-30T03:25:23.794Z,6.80
2018-12-30T03:27:51.614Z,6.80
2018-12-30T03:30:19.600Z,6.80
2018-12-30T03:32:52.586Z,6.80
2018-12-30T03:35:20.344Z,6.80
2018-12-30T03:37:48.163Z,6.80
2018-12-30T03:40:15.994Z,6.80
2018-12-30T03:42:43.910Z,6.80
2018-12-30T03:45:11.731Z,6.80
2018-12-30T03:47:39.608Z,6.90
2018-12-30T03:50:07.424Z,6.90
2018-12-30T03:52:40.526Z,6.90
2018-12-30T03:55:08.331Z,6.90
2018-12-30T03:57:36.125Z,6.90
2018-12-30T04:00:04.761Z,6.80
2018-12-30T04:03:12.623Z,6.90
2018-12-30T04:05:41.018Z,6.90
2018-12-30T04:08:08.825Z,6.90
2018-12-30T04:10:36.636Z,6.90
2018-12-30T04:13:04.500Z,6.90
2018-12-30T04:15:32.339Z,7.00
2018-12-30T04:18:00.150Z,7.00
2018-12-30T04:20:27.901Z,6.90
2018-12-30T04:22:55.833Z,6.90
2018-12-30T04:25:23.604Z,7.00
2018-12-30T04:27:51.413Z,7.00
2018-12-30T04:30:37.909Z,7.10
2018-12-30T04:33:20.029Z,6.90
2018-12-30T04:35:47.800Z,6.90
2018-12-30T04:38:15.517Z,6.90
2018-12-30T04:40:43.332Z,6.90
2018-12-30T04:43:16.279Z,6.90
2018-12-30T04:45:44.141Z,6.80
2018-12-30T04:48:11.953Z,6.90
2018-12-30T04:50:40.107Z,6.90
2018-12-30T04:53:07.984Z,6.90
2018-12-30T04:55:35.792Z,6.70
2018-12-30T04:58:03.900Z,6.90
2018-12-30T05:00:31.695Z,6.90
2018-12-30T05:02:59.685Z,6.80
2018-12-30T05:05:30.298Z,6.80
2018-12-30T05:07:58.108Z,6.80
2018-12-30T05:10:25.937Z,6.90
2018-12-30T05:12:59.051Z,6.90
2018-12-30T05:15:26.859Z,6.90
2018-12-30T05:17:54.651Z,6.80
2018-12-30T05:20:22.415Z,6.90
2018-12-30T05:22:50.400Z,6.90
2018-12-30T05:25:18.145Z,6.90
2018-12-30T05:27:45.949Z,6.90
2018-12-30T05:30:13.734Z,7.30
2018-12-30T05:32:41.551Z,6.90
2018-12-30T05:35:09.410Z,6.50
2018-12-30T05:37:37.226Z,7.00
2018-12-30T05:40:05.010Z,7.00
2018-12-30T05:42:32.802Z,6.90
2018-12-30T05:45:00.629Z,7.00
2018-12-30T05:47:28.442Z,7.00
2018-12-30T05:49:56.221Z,7.00
2018-12-30T05:52:24.059Z,7.00
2018-12-30T05:54:51.825Z,6.90
2018-12-30T05:57:19.670Z,7.00
2018-12-30T05:59:47.456Z,7.00
2018-12-30T06:02:20.499Z,7.00
2018-12-30T06:04:48.257Z,7.00
2018-12-30T06:07:16.043Z,7.00
2018-12-30T06:09:43.834Z,7.00
2018-12-30T06:12:11.660Z,7.00
2018-12-30T06:14:39.487Z,7.00
2018-12-30T06:17:07.275Z,7.00
2018-12-30T06:19:35.028Z,6.90
2018-12-30T06:22:02.868Z,6.90
2018-12-30T06:24:30.639Z,6.90
2018-12-30T06:26:58.421Z,6.90
2018-12-30T06:29:26.218Z,6.90
2018-12-30T06:31:54.174Z,7.30
2018-12-30T06:34:21.980Z,6.90
2018-12-30T06:36:49.814Z,6.90
2018-12-30T06:39:17.661Z,6.90
2018-12-30T06:41:45.550Z,6.90
2018-12-30T06:44:13.340Z,6.90
2018-12-30T06:46:41.148Z,6.90
2018-12-30T06:49:10.610Z,6.90
2018-12-30T06:51:43.560Z,7.00
2018-12-30T06:54:11.371Z,7.00
2018-12-30T06:56:39.178Z,6.90
2018-12-30T06:59:06.969Z,6.60
2018-12-30T07:01:34.778Z,7.00
2018-12-30T07:04:02.568Z,7.00
2018-12-30T07:06:30.415Z,7.00
2018-12-30T07:08:58.187Z,7.00
2018-12-30T07:11:26.016Z,7.10
2018-12-30T07:13:53.872Z,6.90
2018-12-30T07:16:21.673Z,6.80
2018-12-30T07:18:49.460Z,6.90
2018-12-30T07:21:17.295Z,6.90
2018-12-30T07:23:50.447Z,6.90
2018-12-30T07:26:18.272Z,7.00
2018-12-30T07:28:46.324Z,7.00
2018-12-30T07:31:14.125Z,7.00
2018-12-30T07:33:41.908Z,7.00
2018-12-30T07:36:09.734Z,7.00
2018-12-30T07:38:37.545Z,7.00
2018-12-30T07:41:05.306Z,7.10
2018-12-30T07:43:33.139Z,7.10
2018-12-30T07:46:00.922Z,7.10
2018-12-30T07:48:28.748Z,7.30
2018-12-30T07:50:56.533Z,7.10
2018-12-30T07:53:24.401Z,7.00
2018-12-30T07:55:52.219Z,7.00
2018-12-30T07:58:19.994Z,7.00
2018-12-30T08:00:47.837Z,7.00
2018-12-30T08:03:15.637Z,7.00
2018-12-30T08:05:43.683Z,7.10
2018-12-30T08:08:11.445Z,7.10
2018-12-30T08:10:39.327Z,7.10
2018-12-30T08:13:07.333Z,7.10
2018-12-30T08:15:35.114Z,7.10
2018-12-30T08:18:02.890Z,7.10
2018-12-30T08:20:30.716Z,7.10
2018-12-30T08:22:58.644Z,7.10
2018-12-30T08:25:26.505Z,7.00
2018-12-30T08:27:54.272Z,7.10
2018-12-30T08:30:22.128Z,7.10
2018-12-30T08:32:50.053Z,7.10
2018-12-30T08:35:17.937Z,7.20
2018-12-30T08:37:45.700Z,7.10
2018-12-30T08:40:13.526Z,7.20
2018-12-30T08:42:41.412Z,7.30
2018-12-30T08:45:09.197Z,7.30
2018-12-30T08:47:37.007Z,7.20
2018-12-30T08:50:05.165Z,7.30
2018-12-30T08:52:33.430Z,7.30
2018-12-30T08:55:01.368Z,7.40
2018-12-30T08:57:29.223Z,7.50
2018-12-30T08:59:57.059Z,7.40
2018-12-30T09:02:24.876Z,7.60
2018-12-30T09:04:52.711Z,7.40
2018-12-30T09:07:20.541Z,7.50
2018-12-30T09:09:48.393Z,7.50
2018-12-30T09:12:16.212Z,7.60
2018-12-30T09:14:44.068Z,7.80
2018-12-30T09:17:11.877Z,7.80
2018-12-30T09:19:39.717Z,7.90
2018-12-30T09:22:07.537Z,8.10
2018-12-30T09:24:37.606Z,8.20
2018-12-30T09:27:05.412Z,8.40
2018-12-30T09:29:33.239Z,8.50
2018-12-30T09:32:06.300Z,8.40
2018-12-30T09:34:34.119Z,8.40
2018-12-30T09:37:01.984Z,8.40
2018-12-30T09:39:29.791Z,8.30
2018-12-30T09:42:02.870Z,8.30
2018-12-30T09:44:30.676Z,8.40
2018-12-30T09:46:58.520Z,8.50
2018-12-30T09:49:26.369Z,8.50
2018-12-30T09:51:54.261Z,8.50
2018-12-30T09:54:22.492Z,8.50
2018-12-30T09:56:50.368Z,8.40
2018-12-30T09:59:18.150Z,8.70
2018-12-30T10:01:45.922Z,8.20
2018-12-30T10:04:13.786Z,8.50
2018-12-30T10:06:41.648Z,8.40
2018-12-30T10:09:09.486Z,8.60
2018-12-30T10:11:37.841Z,8.70
2018-12-30T10:14:06.430Z,8.60
2018-12-30T10:16:34.252Z,8.70
2018-12-30T10:19:02.082Z,8.40
2018-12-30T10:21:29.885Z,8.60
2018-12-30T10:23:57.712Z,8.50
2018-12-30T10:26:25.493Z,8.40
2018-12-30T10:28:53.313Z,8.30
2018-12-30T10:31:21.039Z,8.30
2018-12-30T10:33:54.068Z,8.20
2018-12-30T10:36:21.906Z,8.50
2018-12-30T10:38:49.711Z,8.40
2018-12-30T10:41:17.530Z,8.50
2018-12-30T10:43:45.410Z,8.60
2018-12-30T10:46:13.227Z,8.40
2018-12-30T10:48:40.972Z,8.40
2018-12-30T10:51:08.733Z,8.60
2018-12-30T10:53:36.550Z,8.60
2018-12-30T10:56:04.428Z,8.50
2018-12-30T10:58:32.462Z,8.80
2018-12-30T11:01:00.541Z,8.90
2018-12-30T11:03:28.494Z,8.80
2018-12-30T11:05:56.307Z,8.80
2018-12-30T11:08:24.099Z,9.00
2018-12-30T11:10:56.678Z,8.70
2018-12-30T11:13:28.143Z,8.80
2018-12-30T11:15:56.079Z,8.90
2018-12-30T11:18:23.908Z,9.00
2018-12-30T11:20:51.739Z,9.00
2018-12-30T11:23:19.546Z,8.90
2018-12-30T11:25:47.336Z,8.90
2018-12-30T11:28:15.122Z,8.90
2018-12-30T11:30:42.881Z,9.10
2018-12-30T11:33:10.716Z,9.20
2018-12-30T11:35:46.937Z,9.30
2018-12-30T11:38:22.318Z,9.10
2018-12-30T11:40:50.133Z,9.20
2018-12-30T11:43:32.974Z,9.20
2018-12-30T11:46:00.770Z,9.30
2018-12-30T11:48:28.592Z,9.20
2018-12-30T11:50:56.371Z,9.20
2018-12-30T11:53:24.267Z,9.10
2018-12-30T11:55:52.055Z,9.10
2018-12-30T11:58:19.883Z,9.10
2018-12-30T12:00:47.680Z,9.10
2018-12-30T12:03:15.641Z,9.00
2018-12-30T12:05:43.440Z,8.90
2018-12-30T12:08:11.291Z,8.70
2018-12-30T12:10:39.042Z,8.60
2018-12-30T12:13:06.851Z,9.00
2018-12-30T12:15:34.628Z,9.00
2018-12-30T12:18:02.391Z,8.80
2018-12-30T12:20:30.237Z,9.00
2018-12-30T12:22:58.061Z,9.00
2018-12-30T12:25:25.796Z,9.00
2018-12-30T12:27:53.637Z,8.80
2018-12-30T12:30:21.388Z,9.00
2018-12-30T12:32:49.295Z,9.00
2018-12-30T12:35:17.086Z,9.00
2018-12-30T12:37:44.957Z,9.10
2018-12-30T12:40:12.756Z,9.10
2018-12-30T12:42:40.567Z,9.20
2018-12-30T12:45:08.367Z,9.10
2018-12-30T12:47:36.117Z,9.10
2018-12-30T12:50:04.243Z,9.10
2018-12-30T12:52:32.040Z,9.10
2018-12-30T12:54:59.899Z,9.00
2018-12-30T12:57:27.693Z,9.10
2018-12-30T12:59:55.460Z,9.00
2018-12-30T13:02:23.291Z,9.10
2018-12-30T13:04:51.039Z,9.10
2018-12-30T13:07:18.867Z,9.10
2018-12-30T13:09:46.632Z,9.00
2018-12-30T13:12:14.444Z,9.10
2018-12-30T13:14:42.264Z,8.90
2018-12-30T13:17:10.036Z,9.00
2018-12-30T13:19:37.874Z,8.90
2018-12-30T13:22:05.659Z,8.80
2018-12-30T13:24:39.856Z,8.90
2018-12-30T13:27:03.160Z,8.90
2018-12-30T13:29:30.918Z,8.80
2018-12-30T13:31:58.849Z,8.90
2018-12-30T13:34:26.640Z,8.70
2018-12-30T13:36:54.429Z,8.80
2018-12-30T13:39:22.253Z,8.80
2018-12-30T13:41:50.238Z,8.70
2018-12-30T13:44:18.114Z,8.70
2018-12-30T13:46:45.955Z,8.70
2018-12-30T13:49:13.791Z,8.80
2018-12-30T13:51:41.611Z,8.80
2018-12-30T13:54:09.418Z,8.80
2018-12-30T13:56:37.219Z,8.70
2018-12-30T13:59:05.058Z,8.70
2018-12-30T14:01:32.973Z,8.70
2018-12-30T14:04:00.802Z,8.70
2018-12-30T14:06:28.578Z,8.60
2018-12-30T14:08:56.360Z,8.50
2018-12-30T14:11:24.732Z,8.50
2018-12-30T14:13:52.556Z,8.50
2018-12-30T14:16:20.339Z,8.50
2018-12-30T14:18:48.150Z,8.50
2018-12-30T14:21:15.921Z,8.30
2018-12-30T14:23:43.743Z,8.30
2018-12-30T14:26:11.467Z,8.30
2018-12-30T14:28:39.336Z,8.30
2018-12-30T14:31:07.210Z,8.30
2018-12-30T14:33:40.063Z,8.20
2018-12-30T14:36:07.793Z,8.30
2018-12-30T14:38:35.617Z,8.20
2018-12-30T14:41:03.500Z,8.30
2018-12-30T14:43:31.449Z,8.30
2018-12-30T14:45:59.235Z,8.30
2018-12-30T14:48:27.018Z,8.20
2018-12-30T14:50:54.856Z,8.20
2018-12-30T14:53:22.752Z,8.20
2018-12-30T14:55:50.529Z,8.10
2018-12-30T14:58:18.363Z,8.10
2018-12-30T15:00:47.722Z,8.20
2018-12-30T15:03:40.393Z,8.10
2018-12-30T15:06:08.153Z,8.00
2018-12-30T15:08:35.942Z,8.30
2018-12-30T15:11:03.812Z,8.00
2018-12-30T15:13:31.587Z,8.00
2018-12-30T15:15:59.447Z,7.80
2018-12-30T15:18:27.283Z,7.90
2018-12-30T15:20:55.086Z,7.90
2018-12-30T15:23:22.899Z,8.00
2018-12-30T15:25:50.730Z,8.00
2018-12-30T15:28:18.562Z,7.90
2018-12-30T15:30:46.376Z,7.80
2018-12-30T15:33:14.184Z,7.90
2018-12-30T15:35:41.985Z,7.90
2018-12-30T15:38:09.776Z,7.90
2018-12-30T15:40:37.562Z,7.90
2018-12-30T15:43:30.083Z,7.90
2018-12-30T15:45:57.856Z,7.90
2018-12-30T15:48:25.664Z,7.90
2018-12-30T15:50:53.441Z,7.90
2018-12-30T15:53:21.346Z,7.90
2018-12-30T15:55:49.158Z,7.90
2018-12-30T15:58:16.946Z,7.70
2018-12-30T16:00:44.717Z,7.80
2018-12-30T16:03:12.676Z,7.80
2018-12-30T16:05:40.512Z,7.80
2018-12-30T16:08:08.367Z,7.80
2018-12-30T16:10:53.384Z,7.70
2018-12-30T16:13:35.602Z,7.80
2018-12-30T16:16:05.886Z,7.70
2018-12-30T16:18:37.030Z,7.50
2018-12-30T16:21:07.650Z,7.70
2018-12-30T16:23:35.670Z,7.70
2018-12-30T16:26:03.506Z,7.70
2018-12-30T16:28:33.183Z,7.70
2018-12-30T16:31:01.361Z,7.70
2018-12-30T16:33:44.384Z,7.70
2018-12-30T16:36:13.798Z,7.70
2018-12-30T16:38:41.568Z,7.80
2018-12-30T16:41:09.405Z,7.80
2018-12-30T16:44:01.690Z,7.70
2018-12-30T16:46:29.543Z,7.70
2018-12-30T16:48:57.375Z,7.70
2018-12-30T16:51:25.139Z,7.70
2018-12-30T16:53:53.080Z,7.70
2018-12-30T16:56:20.904Z,7.70
2018-12-30T16:58:48.699Z,7.70
2018-12-30T17:01:16.501Z,7.70
2018-12-30T17:03:44.438Z,7.80
2018-12-30T17:06:12.236Z,7.80
2018-12-30T17:08:40.048Z,7.70
2018-12-30T17:11:07.938Z,7.70
2018-12-30T17:13:35.695Z,7.70
2018-12-30T17:16:03.491Z,7.70
2018-12-30T17:18:31.293Z,7.70
2018-12-30T17:20:59.195Z,7.70
2018-12-30T17:23:26.988Z,7.70
2018-12-30T17:25:54.765Z,7.70
2018-12-30T17:28:22.580Z,7.70
2018-12-30T17:30:50.404Z,7.60
2018-12-30T17:33:18.206Z,7.60
2018-12-30T17:35:46.330Z,7.60
2018-12-30T17:38:14.266Z,7.60
2018-12-30T17:40:42.371Z,7.60
2018-12-30T17:43:10.163Z,7.60
2018-12-30T17:45:38.036Z,7.60
2018-12-30T17:48:06.006Z,7.60
2018-12-30T17:50:38.430Z,7.60
2018-12-30T17:53:06.535Z,7.60
2018-12-30T17:55:35.223Z,7.70
2018-12-30T17:58:03.070Z,7.70
2018-12-30T18:00:30.935Z,7.70
2018-12-30T18:03:02.653Z,7.60
2018-12-30T18:05:36.413Z,7.60
2018-12-30T18:08:04.306Z,7.70
2018-12-30T18:10:32.251Z,7.60
2018-12-30T18:13:00.171Z,7.60
2018-12-30T18:15:32.406Z,7.60
2018-12-30T18:18:02.565Z,7.60
2018-12-30T18:20:37.314Z,7.50
2018-12-30T18:23:05.552Z,7.70
2018-12-30T18:25:37.642Z,7.40
2018-12-30T18:28:10.438Z,7.40
2018-12-30T18:30:44.094Z,7.50
2018-12-30T18:33:15.840Z,7.40
2018-12-30T18:35:47.390Z,7.40
2018-12-30T18:38:26.786Z,7.40
2018-12-30T18:40:54.835Z,7.40
2018-12-30T18:43:22.716Z,7.40
2018-12-30T18:45:50.952Z,7.40
2018-12-30T18:48:36.803Z,7.30
2018-12-30T18:51:06.663Z,7.30
2018-12-30T18:53:36.623Z,7.30
2018-12-30T18:56:08.085Z,7.60
2018-12-30T18:58:39.551Z,7.40
2018-12-30T19:01:28.160Z,7.30
2018-12-30T19:04:02.440Z,7.40
2018-12-30T19:06:30.282Z,7.40
2018-12-30T19:08:58.337Z,6.90
2018-12-30T19:11:26.231Z,7.40
2018-12-30T19:13:56.092Z,7.50
2018-12-30T19:16:23.932Z,7.40
2018-12-30T19:18:51.759Z,7.30
2018-12-30T19:21:19.598Z,7.40
2018-12-30T19:23:47.862Z,7.40
2018-12-30T19:26:15.697Z,7.50
2018-12-30T19:28:43.578Z,7.50
2018-12-30T19:31:11.442Z,7.50
2018-12-30T19:33:39.447Z,7.50
2018-12-30T19:36:08.438Z,7.50
2018-12-30T19:38:37.246Z,7.40
2018-12-30T19:41:06.472Z,7.30
2018-12-30T19:43:35.489Z,7.20
2018-12-30T19:46:07.828Z,7.30
2018-12-30T19:48:36.718Z,7.30
2018-12-30T19:51:08.186Z,7.30
2018-12-30T19:53:39.607Z,7.30
2018-12-30T19:56:27.616Z,7.30
2018-12-30T19:58:56.561Z,7.90
2018-12-30T20:01:24.853Z,7.20
2018-12-30T20:03:55.329Z,7.30
2018-12-30T20:06:26.573Z,7.20
2018-12-30T20:08:56.462Z,7.30
2018-12-30T20:11:25.382Z,7.20
2018-12-30T20:13:54.706Z,7.20
2018-12-30T20:16:23.970Z,7.20
2018-12-30T20:18:54.758Z,7.10
2018-12-30T20:21:23.458Z,7.20
2018-12-30T20:23:51.917Z,7.10
2018-12-30T20:26:21.149Z,7.10
2018-12-30T20:28:51.880Z,7.10
2018-12-30T20:31:20.450Z,7.00
2018-12-30T20:34:14.993Z,7.00
2018-12-30T20:36:44.093Z,6.90
2018-12-30T20:39:14.671Z,6.80
2018-12-30T20:41:43.887Z,7.00
2018-12-30T20:44:15.330Z,7.00
2018-12-30T20:46:43.695Z,7.70
2018-12-30T20:49:12.565Z,7.00
2018-12-30T20:51:41.420Z,7.00
2018-12-30T20:54:31.265Z,7.00
2018-12-30T20:57:00.128Z,7.00
2018-12-30T20:59:31.728Z,6.90
2018-12-30T21:02:04.667Z,6.90
2018-12-30T21:04:35.475Z,6.90
2018-12-30T21:07:04.189Z,6.50
2018-12-30T21:09:36.016Z,6.30
2018-12-30T21:12:04.983Z,6.90
2018-12-30T21:14:34.075Z,7.00
2018-12-30T21:17:02.518Z,7.00
2018-12-30T21:19:30.974Z,7.00
2018-12-30T21:21:59.383Z,7.00
2018-12-30T21:24:28.154Z,7.00
2018-12-30T21:26:57.136Z,7.00
2018-12-30T21:29:27.144Z,7.00
2018-12-30T21:31:56.023Z,6.90
2018-12-30T21:34:24.673Z,6.90
2018-12-30T21:36:53.252Z,6.90
2018-12-30T21:39:21.506Z,7.00
2018-12-30T21:41:49.983Z,7.00
2018-12-30T21:44:18.214Z,7.00
2018-12-30T21:46:46.545Z,7.00
2018-12-30T21:49:14.834Z,7.00
2018-12-30T21:51:43.168Z,7.00
2018-12-30T21:54:11.471Z,7.00
2018-12-30T21:56:39.926Z,7.00
2018-12-30T21:59:08.399Z,7.00
2018-12-30T22:01:36.651Z,6.90
2018-12-30T22:04:05.018Z,6.90
2018-12-30T22:06:33.374Z,7.00
2018-12-30T22:09:01.671Z,7.00
2018-12-30T22:11:31.888Z,6.90
2018-12-30T22:14:00.359Z,6.90
2018-12-30T22:16:28.607Z,7.00
2018-12-30T22:18:56.932Z,7.00
2018-12-30T22:21:25.019Z,6.90
2018-12-30T22:23:53.400Z,6.90
2018-12-30T22:26:21.778Z,6.90
2018-12-30T22:28:49.874Z,6.90
2018-12-30T22:31:18.184Z,6.90
2018-12-30T22:33:46.766Z,6.90
2018-12-30T22:36:14.919Z,6.90
2018-12-30T22:38:43.067Z,6.80
2018-12-30T22:41:11.544Z,6.90
2018-12-30T22:43:39.912Z,6.90
2018-12-30T22:46:08.355Z,6.90
2018-12-30T22:48:36.662Z,6.90
2018-12-30T22:51:04.952Z,6.70
2018-12-30T22:53:33.356Z,6.80
2018-12-30T22:56:02.162Z,6.80
2018-12-30T22:58:33.004Z,6.90
2018-12-30T23:01:05.313Z,6.90
2018-12-30T23:03:34.158Z,6.90
2018-12-30T23:06:02.467Z,6.90
2018-12-30T23:08:30.880Z,6.80
2018-12-30T23:10:59.126Z,6.80
2018-12-30T23:13:27.711Z,6.70
2018-12-30T23:15:55.869Z,6.70
2018-12-30T23:18:24.323Z,6.70
2018-12-30T23:20:52.641Z,6.80
2018-12-30T23:23:31.127Z,6.70
2018-12-30T23:25:59.925Z,6.70
2018-12-30T23:28:28.170Z,6.80
2018-12-30T23:30:56.458Z,6.80
2018-12-30T23:33:27.304Z,6.80
2018-12-30T23:35:55.704Z,6.80
2018-12-30T23:38:24.274Z,6.70
2018-12-30T23:40:52.659Z,6.80
2018-12-30T23:43:21.208Z,6.80
2018-12-30T23:45:49.545Z,6.70
2018-12-30T23:48:17.927Z,6.80
2018-12-30T23:51:05.982Z,6.70
2018-12-30T23:53:34.518Z,6.10
2018-12-30T23:56:02.715Z,6.80
2018-12-30T23:58:31.056Z,6.90
